createdAt,value
2019-05-20T00:00:33.897Z,53.42
2019-05-20T00:05:40.514Z,54.65
2019-05-20T00:10:46.666Z,57.55
2019-05-20T00:15:51.163Z,56.23
2019-05-20T00:20:55.835Z,55.70
2019-05-20T00:26:04.492Z,57.25
2019-05-20T00:31:10.693Z,55.55
2019-05-20T00:36:26.621Z,56.55
2019-05-20T00:41:32.648Z,55.33
2019-05-20T00:46:37.335Z,56.80
2019-05-20T00:51:43.537Z,54.80
2019-05-20T00:56:49.774Z,57.15
2019-05-20T01:01:55.412Z,57.95
2019-05-20T01:07:02.076Z,53.80
2019-05-20T01:12:07.333Z,54.65
2019-05-20T01:22:19.673Z,51.90
2019-05-20T01:27:25.776Z,50.10
2019-05-20T01:32:31.846Z,51.18
2019-05-20T01:37:36.475Z,51.95
2019-05-20T01:42:41.015Z,50.35
2019-05-20T01:47:50.340Z,50.73
2019-05-20T01:52:54.929Z,52.00
2019-05-20T01:58:01.137Z,50.25
2019-05-20T02:03:05.833Z,49.80
2019-05-20T02:08:12.685Z,47.30
2019-05-20T02:13:17.815Z,44.40
2019-05-20T02:18:24.051Z,43.25
2019-05-20T02:23:28.838Z,44.18
2019-05-20T02:28:33.558Z,46.45
2019-05-20T02:33:50.912Z,47.93
2019-05-20T02:38:45.633Z,48.42
2019-05-20T02:43:59.595Z,48.02
2019-05-20T02:49:05.404Z,46.15
2019-05-20T02:54:10.007Z,46.50
2019-05-20T02:59:14.697Z,43.68
2019-05-20T03:04:19.359Z,50.17
2019-05-20T03:09:24.023Z,47.60
2019-05-20T03:14:34.172Z,47.80
2019-05-20T03:19:37.954Z,47.67
2019-05-20T03:24:42.552Z,56.50
2019-05-20T03:29:47.183Z,56.58
2019-05-20T03:34:59.233Z,58.35
2019-05-20T03:40:01.522Z,57.10
2019-05-20T03:45:07.740Z,58.68
2019-05-20T03:50:14.772Z,57.23
2019-05-20T03:55:21.109Z,57.00
2019-05-20T04:00:46.431Z,51.65
2019-05-20T04:05:55.816Z,52.38
2019-05-20T04:11:00.178Z,50.45
2019-05-20T04:16:05.988Z,47.38
2019-05-20T04:21:16.866Z,45.83
2019-05-20T04:26:24.730Z,42.45
2019-05-20T04:31:29.364Z,41.50
2019-05-20T04:36:34.035Z,40.67
2019-05-20T04:41:39.578Z,41.35
2019-05-20T04:46:44.101Z,39.53
2019-05-20T04:51:48.688Z,38.95
2019-05-20T04:56:54.675Z,39.25
2019-05-20T05:02:01.391Z,38.88
2019-05-20T05:07:07.599Z,37.60
2019-05-20T05:12:12.424Z,35.08
2019-05-20T05:17:18.456Z,37.00
2019-05-20T05:22:26.579Z,36.88
2019-05-20T05:27:31.287Z,36.10
2019-05-20T05:32:41.646Z,38.38
2019-05-20T05:37:46.077Z,36.25
2019-05-20T05:42:50.511Z,35.43
2019-05-20T05:47:54.994Z,37.53
2019-05-20T05:52:59.530Z,35.05
2019-05-20T05:58:04.013Z,33.65
2019-05-20T06:03:08.417Z,38.28
2019-05-20T06:08:12.995Z,38.15
2019-05-20T06:13:17.419Z,34.67
2019-05-20T06:18:24.555Z,34.03
2019-05-20T06:23:30.093Z,38.40
2019-05-20T06:28:34.501Z,43.15
2019-05-20T06:33:38.990Z,39.65
2019-05-20T06:38:44.818Z,39.18
2019-05-20T06:43:49.764Z,37.42
2019-05-20T06:48:54.476Z,38.42
2019-05-20T06:53:58.907Z,39.65
2019-05-20T06:59:03.554Z,36.98
2019-05-20T07:04:08.229Z,36.73
2019-05-20T07:09:12.606Z,35.23
2019-05-20T07:14:17.057Z,35.35
2019-05-20T07:19:21.472Z,37.25
2019-05-20T07:24:25.935Z,37.03
2019-05-20T07:29:31.874Z,37.70
2019-05-20T07:34:36.283Z,36.90
2019-05-20T07:39:40.688Z,35.70
2019-05-20T07:44:45.146Z,35.55
2019-05-20T07:49:51.735Z,36.42
2019-05-20T07:54:56.864Z,34.25
2019-05-20T08:00:03.251Z,35.78
2019-05-20T08:05:09.248Z,36.58
2019-05-20T08:10:14.017Z,41.23
2019-05-20T08:15:18.487Z,36.40
2019-05-20T08:20:23.299Z,29.40
2019-05-20T08:25:27.811Z,27.02
2019-05-20T08:30:37.816Z,28.80
2019-05-20T08:35:43.162Z,31.15
2019-05-20T08:40:48.727Z,28.80
2019-05-20T08:45:53.332Z,30.88
2019-05-20T08:50:57.707Z,28.45
2019-05-20T08:56:02.110Z,29.48
2019-05-20T09:01:07.233Z,29.67
2019-05-20T09:06:32.062Z,35.92
2019-05-20T09:11:36.547Z,38.25
2019-05-20T09:16:41.144Z,42.85
2019-05-20T09:21:45.628Z,46.10
2019-05-20T09:26:50.041Z,44.90
2019-05-20T09:31:54.889Z,42.27
2019-05-20T09:36:59.425Z,40.63
2019-05-20T09:42:05.381Z,31.17
2019-05-20T09:47:09.779Z,28.57
2019-05-20T09:52:14.324Z,29.37
2019-05-20T09:57:18.692Z,32.30
2019-05-20T10:02:32.033Z,42.38
2019-05-20T10:07:29.287Z,34.75
2019-05-20T10:12:45.219Z,29.48
2019-05-20T10:17:39.864Z,23.67
2019-05-20T10:22:44.322Z,25.05
2019-05-20T10:27:50.189Z,25.32
2019-05-20T10:32:54.607Z,23.95
2019-05-20T10:37:59.029Z,21.90
2019-05-20T10:43:03.432Z,20.43
2019-05-20T10:48:09.128Z,20.88
2019-05-20T10:53:13.814Z,19.35
2019-05-20T10:58:18.294Z,19.87
2019-05-20T11:03:23.969Z,18.32
2019-05-20T11:08:28.426Z,18.37
2019-05-20T11:13:32.997Z,18.77
2019-05-20T11:18:37.379Z,17.87
2019-05-20T11:23:43.338Z,25.95
2019-05-20T11:28:47.740Z,16.73
2019-05-20T11:33:52.091Z,18.85
2019-05-20T11:38:56.475Z,16.48
2019-05-20T11:44:00.957Z,16.75
2019-05-20T11:49:05.430Z,15.80
2019-05-20T11:54:09.945Z,16.25
2019-05-20T11:59:14.381Z,22.07
2019-05-20T12:04:18.979Z,21.80
2019-05-20T12:09:23.357Z,19.00
2019-05-20T12:14:27.800Z,19.23
2019-05-20T12:19:35.048Z,23.27
2019-05-20T12:24:39.883Z,22.45
2019-05-20T12:29:44.271Z,27.55
2019-05-20T12:34:48.870Z,31.97
2019-05-20T12:40:06.533Z,28.80
2019-05-20T12:44:59.841Z,30.50
2019-05-20T12:50:04.967Z,29.67
2019-05-20T12:55:10.389Z,31.10
2019-05-20T13:00:18.175Z,30.25
2019-05-20T13:05:22.595Z,37.10
2019-05-20T13:10:31.437Z,33.80
2019-05-20T13:15:33.180Z,32.15
2019-05-20T13:20:37.545Z,31.85
2019-05-20T13:25:41.961Z,27.98
2019-05-20T13:30:49.024Z,27.80
2019-05-20T13:35:53.572Z,26.68
2019-05-20T13:40:58.006Z,23.90
2019-05-20T13:46:02.405Z,26.80
2019-05-20T13:51:06.793Z,32.83
2019-05-20T13:56:11.245Z,28.32
2019-05-20T14:01:15.702Z,27.77
2019-05-20T14:06:20.208Z,26.77
2019-05-20T14:11:34.125Z,29.70
2019-05-20T14:16:30.761Z,28.15
2019-05-20T14:21:35.505Z,30.20
2019-05-20T14:26:39.885Z,28.67
2019-05-20T14:31:44.294Z,26.42
2019-05-20T14:36:52.601Z,27.10
2019-05-20T14:41:55.227Z,27.65
2019-05-20T14:47:01.398Z,28.35
2019-05-20T14:52:06.964Z,27.67
2019-05-20T14:57:12.869Z,29.12
2019-05-20T15:02:17.279Z,28.10
2019-05-20T15:07:30.079Z,26.37
2019-05-20T15:12:27.906Z,24.57
2019-05-20T15:17:32.372Z,27.50
2019-05-20T15:22:36.932Z,26.12
2019-05-20T15:27:41.499Z,25.05
2019-05-20T15:32:46.002Z,27.32
2019-05-20T15:37:50.495Z,28.23
2019-05-20T15:42:55.007Z,25.68
2019-05-20T15:47:59.972Z,29.63
2019-05-20T15:53:04.529Z,28.23
2019-05-20T15:58:08.914Z,29.67
2019-05-20T16:03:32.659Z,28.87
2019-05-20T16:08:37.044Z,28.47
2019-05-20T16:13:41.654Z,29.37
2019-05-20T16:18:46.136Z,28.77
2019-05-20T16:23:50.717Z,34.03
2019-05-20T16:28:55.213Z,35.23
2019-05-20T16:33:59.839Z,26.80
2019-05-20T16:39:06.495Z,23.85
2019-05-20T16:44:11.039Z,27.00
2019-05-20T16:49:15.430Z,29.25
2019-05-20T16:54:19.845Z,29.12
2019-05-20T16:59:24.255Z,28.90
2019-05-20T17:04:29.252Z,31.45
2019-05-20T17:09:33.667Z,34.15
2019-05-20T17:14:38.975Z,36.95
2019-05-20T17:19:43.622Z,38.70
2019-05-20T17:24:48.013Z,39.15
2019-05-20T17:29:52.441Z,39.33
2019-05-20T17:34:57.149Z,39.15
2019-05-20T17:40:01.666Z,37.28
2019-05-20T17:45:08.641Z,42.53
2019-05-20T17:50:13.523Z,37.70
2019-05-20T17:55:17.972Z,38.13
2019-05-20T18:00:23.728Z,36.38
2019-05-20T18:05:28.278Z,35.05
2019-05-20T18:10:32.758Z,35.43
2019-05-20T18:15:37.211Z,31.57
2019-05-20T18:20:41.794Z,31.00
2019-05-20T18:25:46.257Z,31.77
2019-05-20T18:30:50.760Z,33.80
2019-05-20T18:35:55.158Z,32.67
2019-05-20T18:40:59.634Z,30.48
2019-05-20T18:46:04.139Z,27.55
2019-05-20T18:51:08.523Z,28.02
2019-05-20T18:56:13.006Z,27.15
2019-05-20T19:01:19.545Z,24.85
2019-05-20T19:06:23.635Z,25.32
2019-05-20T19:11:28.117Z,25.25
2019-05-20T19:16:32.666Z,26.95
2019-05-20T19:21:37.108Z,25.95
2019-05-20T19:26:58.692Z,24.43
2019-05-20T19:32:09.337Z,22.02
2019-05-20T19:37:38.372Z,19.92
2019-05-20T19:42:39.152Z,22.77
2019-05-20T19:47:50.617Z,26.70
2019-05-20T19:53:01.629Z,30.48
2019-05-20T19:58:11.526Z,31.73
2019-05-20T20:03:19.836Z,36.20
2019-05-20T20:08:30.728Z,35.75
2019-05-20T20:13:37.338Z,37.80
2019-05-20T20:23:50.724Z,35.35
2019-05-20T20:28:58.768Z,34.70
2019-05-20T20:34:14.138Z,35.03
2019-05-20T20:39:20.498Z,33.95
2019-05-20T20:44:26.727Z,30.62
2019-05-20T20:49:32.861Z,30.35
2019-05-20T20:54:37.638Z,31.65
2019-05-20T20:59:44.189Z,32.10
2019-05-20T21:04:49.035Z,32.45
2019-05-20T21:09:54.582Z,33.10
2019-05-20T21:14:59.553Z,33.85
2019-05-20T21:20:06.023Z,40.50
2019-05-20T21:25:17.393Z,37.17
2019-05-20T21:35:26.370Z,37.90
2019-05-20T21:40:31.115Z,39.80
2019-05-20T21:45:37.236Z,42.27
2019-05-20T21:50:41.936Z,44.25
2019-05-20T21:55:47.495Z,42.00
2019-05-20T22:00:53.733Z,38.63
2019-05-20T22:05:59.433Z,39.38
2019-05-20T22:11:04.349Z,44.55
2019-05-20T22:16:09.091Z,45.40
2019-05-20T22:21:16.873Z,44.60
2019-05-20T22:26:23.064Z,41.40
2019-05-20T22:31:28.435Z,37.17
2019-05-20T22:36:35.309Z,36.40
2019-05-20T22:41:40.500Z,39.75
2019-05-20T22:51:51.096Z,42.58
2019-05-20T22:56:56.440Z,41.02
2019-05-20T23:02:09.676Z,42.55
2019-05-20T23:12:18.088Z,42.58
2019-05-20T23:17:24.243Z,46.37
2019-05-20T23:22:30.777Z,48.13
2019-05-20T23:27:35.897Z,49.93
2019-05-20T23:32:42.434Z,50.52
2019-05-20T23:37:49.252Z,49.25
2019-05-20T23:42:55.093Z,48.40
2019-05-20T23:47:59.685Z,49.15
2019-05-20T23:53:04.376Z,51.25
2019-05-20T23:58:09.292Z,46.05
